sensor_id;sensor_type;location;lat;lon;timestamp;P1;durP1;ratioP1;P2;durP2;ratioP2
70228;SDS011;57617;51.988;5.854;2022-10-16T00:00:16;16.17;;;4.53;;
70228;SDS011;57617;51.988;5.854;2022-10-16T00:02:41;9.35;;;4.03;;
70228;SDS011;57617;51.988;5.854;2022-10-16T00:05:07;10.52;;;3.72;;
70228;SDS011;57617;51.988;5.854;2022-10-16T00:07:32;11.00;;;4.60;;
70228;SDS011;57617;51.988;5.854;2022-10-16T00:09:57;9.70;;;3.60;;
70228;SDS011;57617;51.988;5.854;2022-10-16T00:12:22;6.68;;;3.67;;
70228;SDS011;57617;51.988;5.854;2022-10-16T00:14:48;8.73;;;3.80;;
70228;SDS011;57617;51.988;5.854;2022-10-16T00:17:13;7.85;;;3.63;;
70228;SDS011;57617;51.988;5.854;2022-10-16T00:19:38;11.27;;;3.60;;
70228;SDS011;57617;51.988;5.854;2022-10-16T00:22:03;8.35;;;3.75;;
70228;SDS011;57617;51.988;5.854;2022-10-16T00:24:29;7.50;;;3.75;;
70228;SDS011;57617;51.988;5.854;2022-10-16T00:26:54;8.45;;;3.50;;
70228;SDS011;57617;51.988;5.854;2022-10-16T00:29:19;7.15;;;3.83;;
70228;SDS011;57617;51.988;5.854;2022-10-16T00:31:44;6.72;;;3.65;;
70228;SDS011;57617;51.988;5.854;2022-10-16T00:34:10;8.85;;;4.25;;
70228;SDS011;57617;51.988;5.854;2022-10-16T00:36:35;11.63;;;3.97;;
70228;SDS011;57617;51.988;5.854;2022-10-16T00:39:01;9.05;;;3.90;;
70228;SDS011;57617;51.988;5.854;2022-10-16T00:41:27;12.13;;;3.92;;
70228;SDS011;57617;51.988;5.854;2022-10-16T00:43:54;10.07;;;3.60;;
70228;SDS011;57617;51.988;5.854;2022-10-16T00:46:28;9.80;;;3.85;;
70228;SDS011;57617;51.988;5.854;2022-10-16T00:51:52;6.28;;;4.00;;
70228;SDS011;57617;51.988;5.854;2022-10-16T00:54:30;9.38;;;3.92;;
70228;SDS011;57617;51.988;5.854;2022-10-16T00:56:58;8.00;;;4.25;;
70228;SDS011;57617;51.988;5.854;2022-10-16T00:59:27;7.82;;;4.63;;
70228;SDS011;57617;51.988;5.854;2022-10-16T01:02:02;9.13;;;4.25;;
70228;SDS011;57617;51.988;5.854;2022-10-16T01:04:34;7.38;;;4.47;;
70228;SDS011;57617;51.988;5.854;2022-10-16T01:07:07;10.07;;;4.03;;
70228;SDS011;57617;51.988;5.854;2022-10-16T01:15:38;14.20;;;4.85;;
70228;SDS011;57617;51.988;5.854;2022-10-16T01:18:11;10.15;;;4.50;;
70228;SDS011;57617;51.988;5.854;2022-10-16T01:20:47;10.45;;;4.50;;
70228;SDS011;57617;51.988;5.854;2022-10-16T01:26:30;9.52;;;4.53;;
70228;SDS011;57617;51.988;5.854;2022-10-16T01:29:07;8.95;;;4.75;;
70228;SDS011;57617;51.988;5.854;2022-10-16T01:31:37;7.97;;;4.50;;
70228;SDS011;57617;51.988;5.854;2022-10-16T01:34:06;11.50;;;4.80;;
70228;SDS011;57617;51.988;5.854;2022-10-16T01:36:41;10.52;;;4.40;;
70228;SDS011;57617;51.988;5.854;2022-10-16T01:39:12;12.50;;;5.00;;
70228;SDS011;57617;51.988;5.854;2022-10-16T01:41:41;7.38;;;4.47;;
70228;SDS011;57617;51.988;5.854;2022-10-16T01:44:22;7.78;;;4.80;;
70228;SDS011;57617;51.988;5.854;2022-10-16T01:46:52;9.25;;;4.70;;
70228;SDS011;57617;51.988;5.854;2022-10-16T01:49:20;8.95;;;4.70;;
70228;SDS011;57617;51.988;5.854;2022-10-16T01:51:49;6.63;;;4.60;;
70228;SDS011;57617;51.988;5.854;2022-10-16T01:54:20;8.77;;;5.03;;
70228;SDS011;57617;51.988;5.854;2022-10-16T01:56:48;8.43;;;4.32;;
70228;SDS011;57617;51.988;5.854;2022-10-16T01:59:16;7.88;;;3.90;;
70228;SDS011;57617;51.988;5.854;2022-10-16T02:01:49;11.98;;;5.20;;
70228;SDS011;57617;51.988;5.854;2022-10-16T02:04:19;8.52;;;4.63;;
70228;SDS011;57617;51.988;5.854;2022-10-16T02:06:49;7.90;;;4.47;;
70228;SDS011;57617;51.988;5.854;2022-10-16T02:09:15;11.02;;;4.70;;
70228;SDS011;57617;51.988;5.854;2022-10-16T02:11:41;7.30;;;4.50;;
70228;SDS011;57617;51.988;5.854;2022-10-16T02:14:07;10.43;;;4.85;;
70228;SDS011;57617;51.988;5.854;2022-10-16T02:16:40;11.13;;;4.60;;
70228;SDS011;57617;51.988;5.854;2022-10-16T02:19:07;7.60;;;4.38;;
70228;SDS011;57617;51.988;5.854;2022-10-16T02:21:37;9.18;;;4.53;;
70228;SDS011;57617;51.988;5.854;2022-10-16T02:24:11;10.98;;;4.35;;
70228;SDS011;57617;51.988;5.854;2022-10-16T02:26:57;6.63;;;4.07;;
70228;SDS011;57617;51.988;5.854;2022-10-16T02:29:25;7.13;;;3.97;;
70228;SDS011;57617;51.988;5.854;2022-10-16T02:32:02;10.90;;;4.43;;
70228;SDS011;57617;51.988;5.854;2022-10-16T02:34:31;7.90;;;3.88;;
70228;SDS011;57617;51.988;5.854;2022-10-16T02:36:57;6.40;;;4.05;;
70228;SDS011;57617;51.988;5.854;2022-10-16T02:39:24;5.68;;;3.88;;
70228;SDS011;57617;51.988;5.854;2022-10-16T02:41:51;7.30;;;3.95;;
70228;SDS011;57617;51.988;5.854;2022-10-16T02:44:16;6.88;;;3.78;;
70228;SDS011;57617;51.988;5.854;2022-10-16T02:46:42;7.95;;;3.80;;
70228;SDS011;57617;51.988;5.854;2022-10-16T02:49:07;6.40;;;3.80;;
70228;SDS011;57617;51.988;5.854;2022-10-16T02:51:32;6.75;;;3.70;;
70228;SDS011;57617;51.988;5.854;2022-10-16T02:53:58;7.50;;;3.60;;
70228;SDS011;57617;51.988;5.854;2022-10-16T02:56:23;6.68;;;3.85;;
70228;SDS011;57617;51.988;5.854;2022-10-16T02:58:48;8.60;;;3.80;;
70228;SDS011;57617;51.988;5.854;2022-10-16T03:01:14;10.38;;;3.90;;
70228;SDS011;57617;51.988;5.854;2022-10-16T03:03:41;6.75;;;3.65;;
70228;SDS011;57617;51.988;5.854;2022-10-16T03:06:07;6.68;;;3.85;;
70228;SDS011;57617;51.988;5.854;2022-10-16T03:08:32;7.35;;;3.80;;
70228;SDS011;57617;51.988;5.854;2022-10-16T03:10:57;7.38;;;3.50;;
70228;SDS011;57617;51.988;5.854;2022-10-16T03:13:22;7.82;;;3.63;;
70228;SDS011;57617;51.988;5.854;2022-10-16T03:15:48;7.53;;;3.63;;
70228;SDS011;57617;51.988;5.854;2022-10-16T03:18:13;7.05;;;3.35;;
70228;SDS011;57617;51.988;5.854;2022-10-16T03:20:39;5.25;;;3.40;;
70228;SDS011;57617;51.988;5.854;2022-10-16T03:23:04;5.47;;;3.50;;
70228;SDS011;57617;51.988;5.854;2022-10-16T03:25:29;6.15;;;3.80;;
70228;SDS011;57617;51.988;5.854;2022-10-16T03:27:55;4.75;;;3.13;;
70228;SDS011;57617;51.988;5.854;2022-10-16T03:30:20;8.65;;;3.75;;
70228;SDS011;57617;51.988;5.854;2022-10-16T03:32:45;7.65;;;3.70;;
70228;SDS011;57617;51.988;5.854;2022-10-16T03:35:11;7.35;;;3.95;;
70228;SDS011;57617;51.988;5.854;2022-10-16T03:37:36;10.40;;;3.80;;
70228;SDS011;57617;51.988;5.854;2022-10-16T03:40:02;10.32;;;3.63;;
70228;SDS011;57617;51.988;5.854;2022-10-16T03:42:29;6.28;;;3.30;;
70228;SDS011;57617;51.988;5.854;2022-10-16T03:44:54;6.07;;;3.50;;
70228;SDS011;57617;51.988;5.854;2022-10-16T03:47:19;6.43;;;3.50;;
70228;SDS011;57617;51.988;5.854;2022-10-16T03:49:46;7.32;;;3.40;;
70228;SDS011;57617;51.988;5.854;2022-10-16T03:52:12;7.10;;;3.22;;
70228;SDS011;57617;51.988;5.854;2022-10-16T03:54:38;6.70;;;3.50;;
70228;SDS011;57617;51.988;5.854;2022-10-16T03:57:03;5.20;;;3.30;;
70228;SDS011;57617;51.988;5.854;2022-10-16T03:59:28;5.78;;;3.45;;
70228;SDS011;57617;51.988;5.854;2022-10-16T04:01:53;6.25;;;3.22;;
70228;SDS011;57617;51.988;5.854;2022-10-16T04:04:19;6.32;;;3.17;;
70228;SDS011;57617;51.988;5.854;2022-10-16T04:06:44;7.18;;;3.40;;
70228;SDS011;57617;51.988;5.854;2022-10-16T04:09:09;7.28;;;3.03;;
70228;SDS011;57617;51.988;5.854;2022-10-16T04:11:34;7.50;;;3.30;;
70228;SDS011;57617;51.988;5.854;2022-10-16T04:14:00;12.55;;;3.50;;
70228;SDS011;57617;51.988;5.854;2022-10-16T04:16:25;6.47;;;3.25;;
70228;SDS011;57617;51.988;5.854;2022-10-16T04:18:50;4.93;;;3.03;;
70228;SDS011;57617;51.988;5.854;2022-10-16T04:21:16;6.60;;;3.10;;
70228;SDS011;57617;51.988;5.854;2022-10-16T04:23:41;7.60;;;3.17;;
70228;SDS011;57617;51.988;5.854;2022-10-16T04:26:07;6.00;;;3.38;;
70228;SDS011;57617;51.988;5.854;2022-10-16T04:28:32;10.05;;;3.40;;
70228;SDS011;57617;51.988;5.854;2022-10-16T04:30:58;5.55;;;3.28;;
70228;SDS011;57617;51.988;5.854;2022-10-16T04:33:23;9.13;;;3.22;;
70228;SDS011;57617;51.988;5.854;2022-10-16T04:35:48;6.13;;;3.15;;
70228;SDS011;57617;51.988;5.854;2022-10-16T04:38:20;5.75;;;3.45;;
70228;SDS011;57617;51.988;5.854;2022-10-16T04:40:45;5.13;;;3.35;;
70228;SDS011;57617;51.988;5.854;2022-10-16T04:43:11;6.10;;;3.35;;
70228;SDS011;57617;51.988;5.854;2022-10-16T04:45:36;8.13;;;3.20;;
70228;SDS011;57617;51.988;5.854;2022-10-16T04:48:01;7.40;;;3.60;;
70228;SDS011;57617;51.988;5.854;2022-10-16T04:50:26;7.78;;;3.72;;
70228;SDS011;57617;51.988;5.854;2022-10-16T04:52:52;5.82;;;3.20;;
70228;SDS011;57617;51.988;5.854;2022-10-16T04:55:17;6.25;;;3.03;;
70228;SDS011;57617;51.988;5.854;2022-10-16T04:57:42;6.80;;;3.25;;
70228;SDS011;57617;51.988;5.854;2022-10-16T05:00:08;7.72;;;3.35;;
70228;SDS011;57617;51.988;5.854;2022-10-16T05:02:33;6.68;;;3.67;;
70228;SDS011;57617;51.988;5.854;2022-10-16T05:04:59;11.55;;;3.33;;
70228;SDS011;57617;51.988;5.854;2022-10-16T05:07:24;7.63;;;3.60;;
70228;SDS011;57617;51.988;5.854;2022-10-16T05:09:49;7.80;;;3.40;;
70228;SDS011;57617;51.988;5.854;2022-10-16T05:12:15;7.72;;;3.70;;
70228;SDS011;57617;51.988;5.854;2022-10-16T05:14:40;5.15;;;3.63;;
70228;SDS011;57617;51.988;5.854;2022-10-16T05:17:05;7.40;;;3.55;;
70228;SDS011;57617;51.988;5.854;2022-10-16T05:19:31;5.30;;;3.17;;
70228;SDS011;57617;51.988;5.854;2022-10-16T05:21:56;6.88;;;3.65;;
70228;SDS011;57617;51.988;5.854;2022-10-16T05:24:21;7.60;;;3.90;;
70228;SDS011;57617;51.988;5.854;2022-10-16T05:26:47;6.38;;;3.47;;
70228;SDS011;57617;51.988;5.854;2022-10-16T05:29:12;7.57;;;3.50;;
70228;SDS011;57617;51.988;5.854;2022-10-16T05:31:37;5.05;;;3.20;;
70228;SDS011;57617;51.988;5.854;2022-10-16T05:34:03;7.82;;;3.40;;
70228;SDS011;57617;51.988;5.854;2022-10-16T05:36:28;7.35;;;3.92;;
70228;SDS011;57617;51.988;5.854;2022-10-16T05:38:53;10.27;;;3.63;;
70228;SDS011;57617;51.988;5.854;2022-10-16T05:41:19;12.35;;;3.85;;
70228;SDS011;57617;51.988;5.854;2022-10-16T05:43:46;5.72;;;3.28;;
70228;SDS011;57617;51.988;5.854;2022-10-16T05:46:12;7.18;;;3.90;;
70228;SDS011;57617;51.988;5.854;2022-10-16T05:48:38;9.32;;;3.80;;
70228;SDS011;57617;51.988;5.854;2022-10-16T05:51:04;6.78;;;3.83;;
70228;SDS011;57617;51.988;5.854;2022-10-16T05:53:32;7.43;;;3.38;;
70228;SDS011;57617;51.988;5.854;2022-10-16T05:55:59;8.27;;;3.63;;
70228;SDS011;57617;51.988;5.854;2022-10-16T05:58:27;5.60;;;3.95;;
70228;SDS011;57617;51.988;5.854;2022-10-16T06:00:55;6.90;;;3.78;;
70228;SDS011;57617;51.988;5.854;2022-10-16T06:03:20;7.15;;;3.55;;
70228;SDS011;57617;51.988;5.854;2022-10-16T06:05:46;5.47;;;3.28;;
70228;SDS011;57617;51.988;5.854;2022-10-16T06:08:11;8.43;;;3.85;;
70228;SDS011;57617;51.988;5.854;2022-10-16T06:10:37;8.82;;;3.67;;
70228;SDS011;57617;51.988;5.854;2022-10-16T06:13:02;9.18;;;3.53;;
70228;SDS011;57617;51.988;5.854;2022-10-16T06:15:27;8.77;;;3.95;;
70228;SDS011;57617;51.988;5.854;2022-10-16T06:17:52;8.20;;;3.63;;
70228;SDS011;57617;51.988;5.854;2022-10-16T06:20:18;8.75;;;3.90;;
70228;SDS011;57617;51.988;5.854;2022-10-16T06:22:43;8.68;;;3.80;;
70228;SDS011;57617;51.988;5.854;2022-10-16T06:25:08;6.35;;;3.85;;
70228;SDS011;57617;51.988;5.854;2022-10-16T06:27:33;10.23;;;4.10;;
70228;SDS011;57617;51.988;5.854;2022-10-16T06:29:59;9.80;;;4.70;;
70228;SDS011;57617;51.988;5.854;2022-10-16T06:32:24;9.00;;;4.22;;
70228;SDS011;57617;51.988;5.854;2022-10-16T06:34:49;8.63;;;4.50;;
70228;SDS011;57617;51.988;5.854;2022-10-16T06:37:14;9.25;;;4.18;;
70228;SDS011;57617;51.988;5.854;2022-10-16T06:39:40;10.32;;;4.65;;
70228;SDS011;57617;51.988;5.854;2022-10-16T06:42:05;7.07;;;4.18;;
70228;SDS011;57617;51.988;5.854;2022-10-16T06:44:30;7.53;;;5.00;;
70228;SDS011;57617;51.988;5.854;2022-10-16T06:46:55;8.18;;;4.40;;
70228;SDS011;57617;51.988;5.854;2022-10-16T06:49:20;13.15;;;4.75;;
70228;SDS011;57617;51.988;5.854;2022-10-16T06:51:47;13.57;;;4.63;;
70228;SDS011;57617;51.988;5.854;2022-10-16T06:54:14;7.25;;;4.35;;
70228;SDS011;57617;51.988;5.854;2022-10-16T06:56:40;9.95;;;4.20;;
70228;SDS011;57617;51.988;5.854;2022-10-16T06:59:05;8.13;;;4.78;;
70228;SDS011;57617;51.988;5.854;2022-10-16T07:01:31;11.20;;;5.25;;
70228;SDS011;57617;51.988;5.854;2022-10-16T07:03:57;6.00;;;4.55;;
70228;SDS011;57617;51.988;5.854;2022-10-16T07:06:23;13.23;;;5.07;;
70228;SDS011;57617;51.988;5.854;2022-10-16T07:08:50;7.53;;;4.80;;
70228;SDS011;57617;51.988;5.854;2022-10-16T07:11:17;15.52;;;4.45;;
70228;SDS011;57617;51.988;5.854;2022-10-16T07:13:47;8.43;;;4.00;;
70228;SDS011;57617;51.988;5.854;2022-10-16T07:16:14;9.45;;;4.28;;
70228;SDS011;57617;51.988;5.854;2022-10-16T07:18:42;11.32;;;3.70;;
70228;SDS011;57617;51.988;5.854;2022-10-16T07:21:11;9.48;;;3.85;;
70228;SDS011;57617;51.988;5.854;2022-10-16T07:23:39;9.60;;;4.38;;
70228;SDS011;57617;51.988;5.854;2022-10-16T07:26:06;7.88;;;4.10;;
70228;SDS011;57617;51.988;5.854;2022-10-16T07:28:32;9.80;;;3.90;;
70228;SDS011;57617;51.988;5.854;2022-10-16T07:31:04;7.60;;;4.63;;
70228;SDS011;57617;51.988;5.854;2022-10-16T07:33:32;11.80;;;6.95;;
70228;SDS011;57617;51.988;5.854;2022-10-16T07:35:58;8.70;;;4.53;;
70228;SDS011;57617;51.988;5.854;2022-10-16T07:38:23;7.32;;;4.80;;
70228;SDS011;57617;51.988;5.854;2022-10-16T07:40:55;13.80;;;6.07;;
70228;SDS011;57617;51.988;5.854;2022-10-16T07:43:24;14.95;;;12.35;;
70228;SDS011;57617;51.988;5.854;2022-10-16T07:45:50;11.73;;;8.80;;
70228;SDS011;57617;51.988;5.854;2022-10-16T07:48:16;9.35;;;7.25;;
70228;SDS011;57617;51.988;5.854;2022-10-16T07:50:42;8.77;;;5.07;;
70228;SDS011;57617;51.988;5.854;2022-10-16T07:53:08;7.50;;;4.32;;
70228;SDS011;57617;51.988;5.854;2022-10-16T07:55:34;7.40;;;4.03;;
70228;SDS011;57617;51.988;5.854;2022-10-16T07:57:59;11.13;;;5.60;;
70228;SDS011;57617;51.988;5.854;2022-10-16T08:00:24;23.70;;;5.57;;
70228;SDS011;57617;51.988;5.854;2022-10-16T08:02:50;12.27;;;4.53;;
70228;SDS011;57617;51.988;5.854;2022-10-16T08:05:15;9.65;;;6.28;;
70228;SDS011;57617;51.988;5.854;2022-10-16T08:07:40;8.40;;;4.32;;
70228;SDS011;57617;51.988;5.854;2022-10-16T08:10:06;6.35;;;3.65;;
70228;SDS011;57617;51.988;5.854;2022-10-16T08:12:31;7.63;;;3.92;;
70228;SDS011;57617;51.988;5.854;2022-10-16T08:14:56;11.95;;;4.80;;
70228;SDS011;57617;51.988;5.854;2022-10-16T08:17:22;13.07;;;4.65;;
70228;SDS011;57617;51.988;5.854;2022-10-16T08:19:47;17.30;;;6.75;;
70228;SDS011;57617;51.988;5.854;2022-10-16T08:22:13;10.20;;;5.35;;
70228;SDS011;57617;51.988;5.854;2022-10-16T08:24:39;10.40;;;7.75;;
70228;SDS011;57617;51.988;5.854;2022-10-16T08:27:05;9.60;;;5.13;;
70228;SDS011;57617;51.988;5.854;2022-10-16T08:29:30;7.85;;;3.65;;
70228;SDS011;57617;51.988;5.854;2022-10-16T08:31:55;11.02;;;9.52;;
70228;SDS011;57617;51.988;5.854;2022-10-16T08:34:21;9.23;;;4.47;;
70228;SDS011;57617;51.988;5.854;2022-10-16T08:36:46;10.82;;;4.13;;
70228;SDS011;57617;51.988;5.854;2022-10-16T08:39:11;8.32;;;3.88;;
70228;SDS011;57617;51.988;5.854;2022-10-16T08:44:26;7.85;;;4.03;;
70228;SDS011;57617;51.988;5.854;2022-10-16T08:49:44;10.52;;;3.80;;
70228;SDS011;57617;51.988;5.854;2022-10-16T08:52:20;10.32;;;4.00;;
70228;SDS011;57617;51.988;5.854;2022-10-16T08:54:46;8.98;;;3.72;;
70228;SDS011;57617;51.988;5.854;2022-10-16T08:57:21;5.90;;;3.60;;
70228;SDS011;57617;51.988;5.854;2022-10-16T08:59:49;8.38;;;3.75;;
70228;SDS011;57617;51.988;5.854;2022-10-16T09:05:16;5.95;;;3.45;;
70228;SDS011;57617;51.988;5.854;2022-10-16T09:07:57;7.78;;;3.72;;
70228;SDS011;57617;51.988;5.854;2022-10-16T09:13:29;8.73;;;2.90;;
70228;SDS011;57617;51.988;5.854;2022-10-16T09:16:09;11.73;;;3.40;;
70228;SDS011;57617;51.988;5.854;2022-10-16T09:19:00;61.55;;;5.38;;
70228;SDS011;57617;51.988;5.854;2022-10-16T09:21:38;9.77;;;2.90;;
70228;SDS011;57617;51.988;5.854;2022-10-16T09:24:14;10.70;;;2.67;;
70228;SDS011;57617;51.988;5.854;2022-10-16T09:26:42;6.82;;;2.70;;
70228;SDS011;57617;51.988;5.854;2022-10-16T09:29:11;8.50;;;2.72;;
70228;SDS011;57617;51.988;5.854;2022-10-16T09:31:38;7.80;;;2.92;;
70228;SDS011;57617;51.988;5.854;2022-10-16T09:34:04;9.88;;;2.90;;
70228;SDS011;57617;51.988;5.854;2022-10-16T09:36:36;8.10;;;2.80;;
70228;SDS011;57617;51.988;5.854;2022-10-16T09:39:07;9.73;;;2.90;;
70228;SDS011;57617;51.988;5.854;2022-10-16T09:41:34;4.90;;;2.80;;
70228;SDS011;57617;51.988;5.854;2022-10-16T09:44:02;11.20;;;3.03;;
70228;SDS011;57617;51.988;5.854;2022-10-16T09:48:57;11.63;;;2.80;;
70228;SDS011;57617;51.988;5.854;2022-10-16T09:51:29;8.40;;;2.83;;
70228;SDS011;57617;51.988;5.854;2022-10-16T09:54:12;9.88;;;3.05;;
70228;SDS011;57617;51.988;5.854;2022-10-16T09:56:39;12.10;;;3.00;;
70228;SDS011;57617;51.988;5.854;2022-10-16T09:59:11;9.20;;;2.92;;
70228;SDS011;57617;51.988;5.854;2022-10-16T10:01:48;9.13;;;2.70;;
70228;SDS011;57617;51.988;5.854;2022-10-16T10:04:16;10.55;;;3.15;;
70228;SDS011;57617;51.988;5.854;2022-10-16T10:16:46;10.35;;;2.42;;
70228;SDS011;57617;51.988;5.854;2022-10-16T10:19:22;11.23;;;2.97;;
70228;SDS011;57617;51.988;5.854;2022-10-16T10:21:49;9.07;;;2.67;;
70228;SDS011;57617;51.988;5.854;2022-10-16T10:24:16;12.55;;;2.75;;
70228;SDS011;57617;51.988;5.854;2022-10-16T10:27:06;11.73;;;2.83;;
70228;SDS011;57617;51.988;5.854;2022-10-16T10:40:02;12.82;;;2.40;;
70228;SDS011;57617;51.988;5.854;2022-10-16T10:45:18;12.10;;;2.25;;
70228;SDS011;57617;51.988;5.854;2022-10-16T10:50:52;7.53;;;1.63;;
70228;SDS011;57617;51.988;5.854;2022-10-16T10:56:25;12.95;;;1.88;;
70228;SDS011;57617;51.988;5.854;2022-10-16T11:01:50;12.23;;;1.80;;
70228;SDS011;57617;51.988;5.854;2022-10-16T11:07:05;16.08;;;2.50;;
70228;SDS011;57617;51.988;5.854;2022-10-16T11:09:40;10.60;;;1.95;;
70228;SDS011;57617;51.988;5.854;2022-10-16T11:12:13;13.27;;;1.80;;
70228;SDS011;57617;51.988;5.854;2022-10-16T11:14:48;10.02;;;2.20;;
70228;SDS011;57617;51.988;5.854;2022-10-16T11:17:25;13.50;;;2.08;;
70228;SDS011;57617;51.988;5.854;2022-10-16T11:20:00;9.85;;;1.85;;
70228;SDS011;57617;51.988;5.854;2022-10-16T11:22:41;11.27;;;1.83;;
70228;SDS011;57617;51.988;5.854;2022-10-16T11:25:32;8.30;;;1.67;;
70228;SDS011;57617;51.988;5.854;2022-10-16T11:28:02;8.85;;;1.83;;
70228;SDS011;57617;51.988;5.854;2022-10-16T11:30:43;8.43;;;1.85;;
70228;SDS011;57617;51.988;5.854;2022-10-16T11:46:39;9.57;;;1.88;;
70228;SDS011;57617;51.988;5.854;2022-10-16T11:49:15;12.80;;;2.30;;
70228;SDS011;57617;51.988;5.854;2022-10-16T11:51:56;10.32;;;2.05;;
70228;SDS011;57617;51.988;5.854;2022-10-16T11:57:28;11.15;;;1.65;;
70228;SDS011;57617;51.988;5.854;2022-10-16T11:59:58;9.57;;;1.98;;
70228;SDS011;57617;51.988;5.854;2022-10-16T12:04:53;12.98;;;2.17;;
70228;SDS011;57617;51.988;5.854;2022-10-16T12:07:26;10.50;;;2.00;;
70228;SDS011;57617;51.988;5.854;2022-10-16T12:09:57;5.75;;;1.70;;
70228;SDS011;57617;51.988;5.854;2022-10-16T12:15:00;9.40;;;1.92;;
70228;SDS011;57617;51.988;5.854;2022-10-16T12:17:35;10.05;;;2.03;;
70228;SDS011;57617;51.988;5.854;2022-10-16T12:22:36;10.25;;;2.05;;
70228;SDS011;57617;51.988;5.854;2022-10-16T12:25:02;10.00;;;1.90;;
70228;SDS011;57617;51.988;5.854;2022-10-16T12:27:28;12.30;;;2.05;;
70228;SDS011;57617;51.988;5.854;2022-10-16T12:29:57;10.43;;;1.65;;
70228;SDS011;57617;51.988;5.854;2022-10-16T12:32:27;9.52;;;1.85;;
70228;SDS011;57617;51.988;5.854;2022-10-16T12:35:04;10.95;;;1.70;;
70228;SDS011;57617;51.988;5.854;2022-10-16T12:37:33;12.68;;;1.90;;
70228;SDS011;57617;51.988;5.854;2022-10-16T12:40:11;11.63;;;1.88;;
70228;SDS011;57617;51.988;5.854;2022-10-16T12:42:57;10.15;;;1.80;;
70228;SDS011;57617;51.988;5.854;2022-10-16T12:47:57;12.38;;;1.80;;
70228;SDS011;57617;51.988;5.854;2022-10-16T12:50:31;12.18;;;1.70;;
70228;SDS011;57617;51.988;5.854;2022-10-16T12:52:59;10.10;;;2.10;;
70228;SDS011;57617;51.988;5.854;2022-10-16T12:55:26;8.27;;;1.65;;
70228;SDS011;57617;51.988;5.854;2022-10-16T12:58:08;13.43;;;2.00;;
70228;SDS011;57617;51.988;5.854;2022-10-16T13:03:36;15.68;;;2.83;;
70228;SDS011;57617;51.988;5.854;2022-10-16T13:09:19;12.88;;;3.67;;
70228;SDS011;57617;51.988;5.854;2022-10-16T13:14:54;13.60;;;3.20;;
70228;SDS011;57617;51.988;5.854;2022-10-16T13:20:17;10.77;;;2.50;;
70228;SDS011;57617;51.988;5.854;2022-10-16T13:28:16;12.32;;;3.13;;
70228;SDS011;57617;51.988;5.854;2022-10-16T13:30:52;10.30;;;2.90;;
70228;SDS011;57617;51.988;5.854;2022-10-16T13:33:24;13.50;;;4.20;;
70228;SDS011;57617;51.988;5.854;2022-10-16T13:35:54;10.35;;;3.17;;
70228;SDS011;57617;51.988;5.854;2022-10-16T13:38:21;11.55;;;2.72;;
70228;SDS011;57617;51.988;5.854;2022-10-16T13:40:53;11.27;;;3.20;;
70228;SDS011;57617;51.988;5.854;2022-10-16T13:43:34;10.43;;;2.78;;
70228;SDS011;57617;51.988;5.854;2022-10-16T13:46:04;12.77;;;3.05;;
70228;SDS011;57617;51.988;5.854;2022-10-16T13:49:00;12.05;;;1.88;;
70228;SDS011;57617;51.988;5.854;2022-10-16T13:51:28;10.98;;;2.13;;
70228;SDS011;57617;51.988;5.854;2022-10-16T13:53:55;13.00;;;2.50;;
70228;SDS011;57617;51.988;5.854;2022-10-16T13:56:22;11.18;;;2.53;;
70228;SDS011;57617;51.988;5.854;2022-10-16T13:59:22;7.78;;;2.40;;
70228;SDS011;57617;51.988;5.854;2022-10-16T14:01:55;9.90;;;2.95;;
70228;SDS011;57617;51.988;5.854;2022-10-16T14:04:22;15.27;;;2.40;;
70228;SDS011;57617;51.988;5.854;2022-10-16T14:06:49;9.07;;;1.98;;
70228;SDS011;57617;51.988;5.854;2022-10-16T14:09:25;12.35;;;2.30;;
70228;SDS011;57617;51.988;5.854;2022-10-16T14:11:54;12.98;;;3.40;;
70228;SDS011;57617;51.988;5.854;2022-10-16T14:14:23;14.98;;;2.88;;
70228;SDS011;57617;51.988;5.854;2022-10-16T14:16:49;11.85;;;2.78;;
70228;SDS011;57617;51.988;5.854;2022-10-16T14:19:21;17.38;;;3.60;;
70228;SDS011;57617;51.988;5.854;2022-10-16T14:21:50;12.32;;;3.78;;
70228;SDS011;57617;51.988;5.854;2022-10-16T14:24:24;10.10;;;2.47;;
70228;SDS011;57617;51.988;5.854;2022-10-16T14:26:52;12.70;;;2.60;;
70228;SDS011;57617;51.988;5.854;2022-10-16T14:29:20;11.68;;;2.60;;
70228;SDS011;57617;51.988;5.854;2022-10-16T14:31:56;11.93;;;2.33;;
70228;SDS011;57617;51.988;5.854;2022-10-16T14:34:23;10.20;;;2.22;;
70228;SDS011;57617;51.988;5.854;2022-10-16T14:36:49;11.32;;;2.28;;
70228;SDS011;57617;51.988;5.854;2022-10-16T14:39:19;6.72;;;1.73;;
70228;SDS011;57617;51.988;5.854;2022-10-16T14:41:47;14.48;;;2.55;;
70228;SDS011;57617;51.988;5.854;2022-10-16T14:44:14;9.85;;;2.10;;
70228;SDS011;57617;51.988;5.854;2022-10-16T14:46:42;11.35;;;2.20;;
70228;SDS011;57617;51.988;5.854;2022-10-16T14:51:34;10.93;;;2.55;;
70228;SDS011;57617;51.988;5.854;2022-10-16T14:54:00;13.10;;;2.17;;
70228;SDS011;57617;51.988;5.854;2022-10-16T14:56:29;13.23;;;2.75;;
70228;SDS011;57617;51.988;5.854;2022-10-16T14:58:56;12.90;;;2.63;;
70228;SDS011;57617;51.988;5.854;2022-10-16T15:01:22;14.98;;;2.55;;
70228;SDS011;57617;51.988;5.854;2022-10-16T15:03:47;11.50;;;2.78;;
70228;SDS011;57617;51.988;5.854;2022-10-16T15:06:14;13.88;;;2.67;;
70228;SDS011;57617;51.988;5.854;2022-10-16T15:08:40;13.18;;;2.92;;
70228;SDS011;57617;51.988;5.854;2022-10-16T15:11:16;12.45;;;3.72;;
70228;SDS011;57617;51.988;5.854;2022-10-16T15:13:42;10.32;;;4.05;;
70228;SDS011;57617;51.988;5.854;2022-10-16T15:16:10;12.75;;;3.30;;
70228;SDS011;57617;51.988;5.854;2022-10-16T15:18:36;13.32;;;3.25;;
70228;SDS011;57617;51.988;5.854;2022-10-16T15:21:02;15.90;;;3.28;;
70228;SDS011;57617;51.988;5.854;2022-10-16T15:23:27;14.00;;;3.03;;
70228;SDS011;57617;51.988;5.854;2022-10-16T15:25:56;12.15;;;2.92;;
70228;SDS011;57617;51.988;5.854;2022-10-16T15:28:21;12.63;;;3.35;;
70228;SDS011;57617;51.988;5.854;2022-10-16T15:30:49;10.82;;;2.72;;
70228;SDS011;57617;51.988;5.854;2022-10-16T15:33:17;13.50;;;2.70;;
70228;SDS011;57617;51.988;5.854;2022-10-16T15:35:48;12.93;;;2.72;;
70228;SDS011;57617;51.988;5.854;2022-10-16T15:38:14;13.70;;;2.45;;
70228;SDS011;57617;51.988;5.854;2022-10-16T15:40:41;14.68;;;2.83;;
70228;SDS011;57617;51.988;5.854;2022-10-16T15:43:06;11.15;;;2.60;;
70228;SDS011;57617;51.988;5.854;2022-10-16T15:45:32;18.80;;;2.70;;
70228;SDS011;57617;51.988;5.854;2022-10-16T15:47:57;14.95;;;2.25;;
70228;SDS011;57617;51.988;5.854;2022-10-16T15:50:23;16.08;;;2.60;;
70228;SDS011;57617;51.988;5.854;2022-10-16T15:52:49;13.50;;;2.97;;
70228;SDS011;57617;51.988;5.854;2022-10-16T15:55:14;11.48;;;2.70;;
70228;SDS011;57617;51.988;5.854;2022-10-16T15:57:40;13.60;;;2.88;;
70228;SDS011;57617;51.988;5.854;2022-10-16T16:00:08;16.80;;;3.10;;
70228;SDS011;57617;51.988;5.854;2022-10-16T16:02:39;23.27;;;2.60;;
70228;SDS011;57617;51.988;5.854;2022-10-16T16:05:05;7.55;;;2.38;;
70228;SDS011;57617;51.988;5.854;2022-10-16T16:07:33;9.52;;;2.20;;
70228;SDS011;57617;51.988;5.854;2022-10-16T16:09:59;13.15;;;2.30;;
70228;SDS011;57617;51.988;5.854;2022-10-16T16:12:25;8.70;;;2.45;;
70228;SDS011;57617;51.988;5.854;2022-10-16T16:14:50;14.63;;;3.28;;
70228;SDS011;57617;51.988;5.854;2022-10-16T16:17:16;16.55;;;2.58;;
70228;SDS011;57617;51.988;5.854;2022-10-16T16:19:41;22.88;;;2.65;;
70228;SDS011;57617;51.988;5.854;2022-10-16T16:22:07;17.92;;;2.92;;
70228;SDS011;57617;51.988;5.854;2022-10-16T16:24:32;15.07;;;2.85;;
70228;SDS011;57617;51.988;5.854;2022-10-16T16:26:57;12.40;;;2.63;;
70228;SDS011;57617;51.988;5.854;2022-10-16T16:29:22;17.55;;;2.60;;
70228;SDS011;57617;51.988;5.854;2022-10-16T16:31:48;22.50;;;3.00;;
70228;SDS011;57617;51.988;5.854;2022-10-16T16:34:13;10.70;;;2.75;;